createdAt,value
2023-04-02T00:02:20.941Z,3.13
2023-04-02T00:05:19.569Z,3.11
2023-04-02T00:07:52.127Z,3.07
2023-04-02T00:10:50.046Z,3.00
2023-04-02T00:13:16.412Z,2.99
2023-04-02T00:15:48.298Z,2.97
2023-04-02T00:18:21.229Z,2.81
2023-04-02T00:21:00.372Z,2.58
2023-04-02T00:23:27.238Z,2.63
2023-04-02T00:25:53.662Z,2.57
2023-04-02T00:28:24.371Z,2.74
2023-04-02T00:31:00.288Z,2.75
2023-04-02T00:33:30.320Z,2.89
2023-04-02T00:35:57.218Z,2.69
2023-04-02T00:38:29.977Z,2.68
2023-04-02T00:40:59.524Z,2.59
2023-04-02T00:43:30.768Z,2.69
2023-04-02T00:46:03.935Z,3.00
2023-04-02T00:48:33.453Z,3.01
2023-04-02T00:51:10.695Z,2.86
2023-04-02T00:53:37.680Z,3.08
2023-04-02T00:56:19.667Z,2.87
2023-04-02T00:58:51.866Z,3.05
2023-04-02T01:01:22.808Z,3.15
2023-04-02T01:03:57.990Z,2.96
2023-04-02T01:06:28.953Z,3.08
2023-04-02T01:09:14.059Z,3.28
2023-04-02T01:11:52.270Z,3.33
2023-04-02T01:14:36.727Z,3.36
2023-04-02T01:17:15.446Z,3.22
2023-04-02T01:19:53.838Z,3.33
2023-04-02T01:23:10.325Z,3.41
2023-04-02T01:25:50.370Z,3.28
2023-04-02T01:28:25.691Z,3.37
2023-04-02T01:30:55.899Z,3.33
2023-04-02T01:33:30.265Z,3.37
2023-04-02T01:36:16.390Z,3.22
2023-04-02T01:39:05.226Z,3.04
2023-04-02T01:41:43.726Z,2.76
2023-04-02T01:44:15.238Z,3.08
2023-04-02T01:46:42.961Z,2.79
2023-04-02T01:49:15.873Z,3.12
2023-04-02T01:51:44.981Z,3.09
2023-04-02T01:54:14.165Z,3.05
2023-04-02T01:56:41.384Z,2.90
2023-04-02T01:59:08.328Z,2.74
2023-04-02T02:01:59.791Z,2.97
2023-04-02T02:04:26.779Z,2.94
2023-04-02T02:06:53.540Z,2.92
2023-04-02T02:09:25.982Z,2.33
2023-04-02T02:11:52.637Z,2.86
2023-04-02T02:14:22.217Z,2.52
2023-04-02T02:16:50.173Z,2.83
2023-04-02T02:19:47.931Z,2.82
2023-04-02T02:22:19.689Z,2.74
2023-04-02T02:24:47.537Z,2.71
2023-04-02T02:27:23.085Z,2.66
2023-04-02T02:30:00.397Z,2.62
2023-04-02T02:32:32.624Z,2.58
2023-04-02T02:35:11.200Z,1.16
2023-04-02T02:37:42.722Z,1.97
2023-04-02T02:40:21.800Z,2.07
2023-04-02T02:43:02.891Z,1.50
2023-04-02T02:45:37.770Z,2.38
2023-04-02T02:48:10.782Z,2.35
2023-04-02T02:50:41.774Z,1.89
2023-04-02T02:53:22.037Z,2.30
2023-04-02T02:55:58.388Z,2.26
2023-04-02T02:58:28.137Z,1.63
2023-04-02T03:00:54.821Z,1.29
2023-04-02T03:03:25.129Z,2.17
2023-04-02T03:06:01.718Z,2.13
2023-04-02T03:08:40.562Z,1.72
2023-04-02T03:11:19.674Z,1.64
2023-04-02T03:13:50.871Z,1.93
2023-04-02T03:16:34.666Z,1.65
2023-04-02T03:19:18.228Z,1.58
2023-04-02T03:21:55.334Z,1.42
2023-04-02T03:24:30.523Z,0.96
2023-04-02T03:27:07.228Z,1.61
2023-04-02T03:29:39.429Z,1.41
2023-04-02T03:32:11.894Z,1.65
2023-04-02T03:34:44.402Z,1.46
2023-04-02T03:37:18.746Z,1.65
2023-04-02T03:39:53.759Z,1.65
2023-04-02T03:42:36.093Z,1.54
2023-04-02T03:45:15.367Z,1.28
2023-04-02T03:47:59.615Z,1.43
2023-04-02T03:50:34.390Z,1.66
2023-04-02T03:53:02.705Z,1.08
2023-04-02T03:55:33.834Z,1.37
2023-04-02T03:58:20.767Z,1.69
2023-04-02T04:01:26.498Z,1.60
2023-04-02T04:04:04.486Z,1.73
2023-04-02T04:06:34.742Z,1.76
2023-04-02T04:09:07.512Z,1.86
2023-04-02T04:11:43.958Z,1.77
2023-04-02T04:14:18.473Z,1.89
2023-04-02T04:16:54.918Z,1.37
2023-04-02T04:19:38.342Z,1.95
2023-04-02T04:22:30.434Z,1.99
2023-04-02T04:25:02.816Z,1.85
2023-04-02T04:28:05.746Z,2.10
2023-04-02T04:30:51.439Z,2.15
2023-04-02T04:33:23.435Z,2.17
2023-04-02T04:35:56.149Z,1.73
2023-04-02T04:38:35.632Z,2.20
2023-04-02T04:41:10.556Z,1.90
2023-04-02T04:43:46.587Z,2.16
2023-04-02T04:46:18.464Z,1.93
2023-04-02T04:49:14.220Z,2.17
2023-04-02T04:52:01.409Z,2.16
2023-04-02T04:54:28.697Z,2.15
2023-04-02T04:57:01.003Z,2.16
2023-04-02T04:59:33.647Z,1.77
2023-04-02T05:02:15.050Z,2.15
2023-04-02T05:04:44.241Z,2.13
2023-04-02T05:07:32.077Z,2.06
2023-04-02T05:10:29.256Z,2.16
2023-04-02T05:13:05.644Z,2.17
2023-04-02T05:15:43.664Z,2.21
2023-04-02T05:18:36.231Z,2.07
2023-04-02T05:21:16.403Z,2.33
2023-04-02T05:23:48.822Z,2.45
2023-04-02T05:26:21.776Z,1.83
2023-04-02T05:29:08.229Z,2.46
2023-04-02T05:31:46.734Z,2.69
2023-04-02T05:34:13.824Z,2.78
2023-04-02T05:36:40.632Z,2.40
2023-04-02T05:39:11.070Z,2.93
2023-04-02T05:41:47.513Z,3.01
2023-04-02T05:44:38.549Z,3.25
2023-04-02T05:47:12.283Z,3.22
2023-04-02T05:49:51.411Z,3.60
2023-04-02T05:52:23.704Z,3.72
2023-04-02T05:55:13.487Z,3.89
2023-04-02T05:58:21.365Z,4.04
2023-04-02T06:00:58.392Z,3.90
2023-04-02T06:03:37.166Z,4.26
2023-04-02T06:06:14.706Z,4.02
2023-04-02T06:08:51.036Z,4.33
2023-04-02T06:11:28.912Z,4.12
2023-04-02T06:13:55.466Z,4.50
2023-04-02T06:16:26.360Z,4.49
2023-04-02T06:18:54.905Z,4.33
2023-04-02T06:21:22.783Z,4.48
2023-04-02T06:24:02.449Z,4.69
2023-04-02T06:26:42.524Z,4.59
2023-04-02T06:29:17.486Z,4.61
2023-04-02T06:31:52.943Z,5.16
2023-04-02T06:34:25.581Z,5.13
2023-04-02T06:36:57.394Z,5.36
2023-04-02T06:39:25.497Z,5.36
2023-04-02T06:42:01.283Z,5.53
2023-04-02T06:44:34.114Z,5.63
2023-04-02T06:47:25.529Z,5.59
2023-04-02T06:50:07.127Z,5.92
2023-04-02T06:52:44.610Z,5.88
2023-04-02T06:55:20.286Z,6.28
2023-04-02T06:57:47.687Z,6.29
2023-04-02T07:00:32.434Z,6.72
2023-04-02T07:03:02.889Z,6.55
2023-04-02T07:05:29.422Z,6.91
2023-04-02T07:07:55.928Z,6.62
2023-04-02T07:10:22.466Z,7.19
2023-04-02T07:12:48.993Z,7.31
2023-04-02T07:15:23.946Z,7.44
2023-04-02T07:17:52.172Z,7.18
2023-04-02T07:20:34.582Z,7.18
2023-04-02T07:23:01.330Z,7.47
2023-04-02T07:25:27.811Z,7.18
2023-04-02T07:27:55.503Z,7.69
2023-04-02T07:30:21.912Z,7.68
2023-04-02T07:32:49.011Z,7.71
2023-04-02T07:35:15.640Z,7.72
2023-04-02T07:37:42.069Z,7.48
2023-04-02T07:40:26.896Z,7.62
2023-04-02T07:42:53.321Z,7.56
2023-04-02T07:45:19.731Z,7.60
2023-04-02T07:47:46.281Z,7.43
2023-04-02T07:50:13.413Z,7.57
2023-04-02T07:52:43.856Z,7.79
2023-04-02T07:55:12.701Z,7.80
2023-04-02T07:57:49.280Z,7.87
2023-04-02T08:00:16.914Z,7.93
2023-04-02T08:02:43.542Z,7.95
2023-04-02T08:05:10.607Z,8.13
2023-04-02T08:07:38.980Z,8.16
2023-04-02T08:10:07.446Z,8.24
2023-04-02T08:12:34.024Z,7.99
2023-04-02T08:15:02.150Z,7.74
2023-04-02T08:17:31.442Z,8.16
2023-04-02T08:20:01.216Z,8.55
2023-04-02T08:22:30.668Z,8.41
2023-04-02T08:24:57.364Z,8.73
2023-04-02T08:27:24.796Z,8.79
2023-04-02T08:29:51.905Z,8.69
2023-04-02T08:32:18.475Z,8.65
2023-04-02T08:34:45.799Z,8.54
2023-04-02T08:37:12.720Z,8.69
2023-04-02T08:39:39.714Z,8.78
2023-04-02T08:42:21.805Z,9.06
2023-04-02T08:45:24.925Z,9.33
2023-04-02T08:47:55.580Z,9.38
2023-04-02T08:50:37.290Z,9.83
2023-04-02T08:53:08.159Z,10.07
2023-04-02T08:55:48.428Z,10.07
2023-04-02T08:58:21.283Z,10.43
2023-04-02T09:00:52.608Z,9.95
2023-04-02T09:03:34.862Z,10.11
2023-04-02T09:06:03.651Z,9.59
2023-04-02T09:08:32.153Z,9.65
2023-04-02T09:11:19.456Z,10.04
2023-04-02T09:13:49.679Z,9.77
2023-04-02T09:16:18.321Z,10.59
2023-04-02T09:18:45.510Z,10.60
2023-04-02T09:21:21.084Z,10.70
2023-04-02T09:23:54.648Z,10.47
2023-04-02T09:26:27.795Z,10.89
2023-04-02T09:29:12.729Z,11.33
2023-04-02T09:31:55.968Z,11.50
2023-04-02T09:34:32.141Z,11.36
2023-04-02T09:37:29.383Z,12.21
2023-04-02T09:40:29.551Z,12.46
2023-04-02T09:43:09.648Z,12.61
2023-04-02T09:45:36.959Z,12.67
2023-04-02T09:48:22.158Z,12.68
2023-04-02T09:50:48.681Z,12.59
2023-04-02T09:53:36.712Z,12.84
2023-04-02T09:56:21.680Z,12.85
2023-04-02T09:59:04.699Z,12.70
2023-04-02T10:01:39.869Z,12.75
2023-04-02T10:04:36.374Z,12.74
2023-04-02T10:07:06.446Z,12.55
2023-04-02T10:09:36.564Z,12.66
2023-04-02T10:12:05.158Z,13.29
2023-04-02T10:14:35.753Z,13.30
2023-04-02T10:17:14.741Z,12.78
2023-04-02T10:19:44.971Z,13.40
2023-04-02T10:22:13.392Z,13.79
2023-04-02T10:24:40.228Z,12.84
2023-04-02T10:27:17.573Z,13.20
2023-04-02T10:30:05.472Z,13.09
2023-04-02T10:32:56.949Z,12.99
2023-04-02T10:35:32.359Z,12.97
2023-04-02T10:38:17.202Z,13.03
2023-04-02T10:40:55.348Z,12.75
2023-04-02T10:43:36.454Z,12.76
2023-04-02T10:46:14.726Z,12.95
2023-04-02T10:49:16.715Z,13.07
2023-04-02T10:51:51.647Z,13.18
2023-04-02T10:54:36.262Z,13.23
2023-04-02T10:57:07.308Z,13.27
2023-04-02T10:59:37.299Z,13.30
2023-04-02T11:02:15.418Z,13.42
2023-04-02T11:04:46.117Z,13.61
2023-04-02T11:07:20.800Z,12.60
2023-04-02T11:09:51.475Z,13.46
2023-04-02T11:12:27.498Z,13.74
2023-04-02T11:14:55.780Z,13.90
2023-04-02T11:17:23.252Z,13.85
2023-04-02T11:19:49.856Z,13.65
2023-04-02T11:22:25.631Z,13.66
2023-04-02T11:24:54.714Z,13.53
2023-04-02T11:27:36.159Z,13.36
2023-04-02T11:30:05.353Z,13.72
2023-04-02T11:32:39.235Z,13.90
2023-04-02T11:35:35.616Z,14.11
2023-04-02T11:38:23.785Z,14.06
2023-04-02T11:40:55.256Z,14.07
2023-04-02T11:43:35.551Z,14.33
2023-04-02T11:46:24.823Z,13.71
2023-04-02T11:48:51.788Z,14.06
2023-04-02T11:51:22.333Z,13.91
2023-04-02T11:53:54.652Z,13.61
2023-04-02T11:56:44.103Z,13.86
2023-04-02T11:59:13.602Z,13.89
2023-04-02T12:01:58.765Z,14.02
2023-04-02T12:04:52.627Z,14.07
2023-04-02T12:07:53.322Z,14.05
2023-04-02T12:10:23.083Z,14.08
2023-04-02T12:12:51.530Z,13.68
2023-04-02T12:15:42.340Z,14.39
2023-04-02T12:18:17.722Z,14.47
2023-04-02T12:20:53.333Z,14.31
2023-04-02T12:23:33.241Z,14.11
2023-04-02T12:26:27.423Z,14.08
2023-04-02T12:28:54.294Z,13.55
2023-04-02T12:31:25.087Z,13.85
2023-04-02T12:33:52.991Z,13.75
2023-04-02T12:36:22.340Z,13.84
2023-04-02T12:38:57.870Z,13.89
2023-04-02T12:41:42.548Z,13.66
2023-04-02T12:44:18.382Z,13.87
2023-04-02T12:46:46.176Z,13.83
2023-04-02T12:49:25.306Z,13.66
2023-04-02T12:51:52.693Z,13.77
2023-04-02T12:54:20.638Z,13.47
2023-04-02T12:56:49.151Z,13.66
2023-04-02T12:59:35.871Z,13.76
2023-04-02T13:02:16.138Z,13.46
2023-04-02T13:04:51.390Z,13.52
2023-04-02T13:07:21.346Z,13.35
2023-04-02T13:09:50.493Z,13.32
2023-04-02T13:12:40.706Z,13.39
2023-04-02T13:15:28.394Z,13.62
2023-04-02T13:18:08.830Z,13.43
2023-04-02T13:20:38.849Z,12.88
2023-04-02T13:23:23.963Z,13.76
2023-04-02T13:25:51.285Z,13.59
2023-04-02T13:28:18.609Z,13.62
2023-04-02T13:30:46.103Z,13.45
2023-04-02T13:33:13.851Z,13.52
2023-04-02T13:35:41.333Z,13.87
2023-04-02T13:38:08.672Z,13.87
2023-04-02T13:40:37.410Z,13.80
2023-04-02T13:43:05.651Z,13.97
2023-04-02T13:45:38.327Z,13.92
2023-04-02T13:48:05.766Z,13.66
2023-04-02T13:50:34.536Z,13.63
2023-04-02T13:53:09.834Z,13.43
2023-04-02T13:55:42.025Z,13.18
2023-04-02T13:58:08.741Z,13.29
2023-04-02T14:00:37.794Z,13.25
2023-04-02T14:03:11.493Z,12.84
2023-04-02T14:05:51.981Z,13.03
2023-04-02T14:08:40.442Z,13.00
2023-04-02T14:11:22.778Z,12.66
2023-04-02T14:13:57.984Z,12.91
2023-04-02T14:16:59.220Z,12.68
2023-04-02T14:19:52.231Z,13.13
2023-04-02T14:22:39.758Z,13.14
2023-04-02T14:25:15.319Z,13.16
2023-04-02T14:28:09.758Z,13.13
2023-04-02T14:30:54.059Z,13.17
2023-04-02T14:33:38.668Z,12.95
2023-04-02T14:36:26.795Z,12.87
2023-04-02T14:39:16.572Z,13.31
2023-04-02T14:41:48.247Z,13.36
2023-04-02T14:44:18.739Z,13.30
2023-04-02T14:46:46.784Z,13.24
2023-04-02T14:49:25.353Z,13.27
2023-04-02T14:51:58.869Z,13.15
2023-04-02T14:54:31.837Z,13.52
2023-04-02T14:57:18.692Z,13.30
2023-04-02T14:59:58.236Z,13.42
2023-04-02T15:02:46.084Z,13.35
2023-04-02T15:05:18.373Z,13.20
2023-04-02T15:08:01.509Z,12.98
2023-04-02T15:10:41.100Z,12.96
2023-04-02T15:13:19.918Z,12.47
2023-04-02T15:15:52.537Z,12.98
2023-04-02T15:18:18.995Z,12.93
2023-04-02T15:20:54.723Z,12.83
2023-04-02T15:23:48.575Z,12.72
2023-04-02T15:26:34.501Z,12.67
2023-04-02T15:29:28.676Z,12.64
2023-04-02T15:32:13.196Z,12.45
2023-04-02T15:35:12.882Z,12.66
2023-04-02T15:37:50.532Z,12.21
2023-04-02T15:40:22.987Z,12.84
2023-04-02T15:43:01.769Z,12.81
2023-04-02T15:45:48.972Z,12.71
2023-04-02T15:48:26.821Z,12.18
2023-04-02T15:51:19.049Z,12.00
2023-04-02T15:54:05.834Z,11.80
2023-04-02T15:56:51.729Z,11.75
2023-04-02T15:59:33.358Z,11.98
2023-04-02T16:02:28.718Z,11.38
2023-04-02T16:05:32.764Z,11.84
2023-04-02T16:08:24.029Z,11.84
2023-04-02T16:10:51.039Z,11.37
2023-04-02T16:13:32.979Z,11.70
2023-04-02T16:16:07.630Z,11.87
2023-04-02T16:18:57.821Z,11.93
2023-04-02T16:21:29.176Z,11.93
2023-04-02T16:23:55.931Z,11.90
2023-04-02T16:26:41.110Z,11.82
2023-04-02T16:29:24.014Z,11.70
2023-04-02T16:32:02.163Z,11.54
2023-04-02T16:34:52.482Z,11.42
2023-04-02T16:37:18.784Z,11.48
2023-04-02T16:40:01.991Z,11.20
2023-04-02T16:42:47.761Z,11.23
2023-04-02T16:45:23.670Z,11.14
2023-04-02T16:48:00.475Z,11.10
2023-04-02T16:50:33.182Z,10.81
2023-04-02T16:53:22.789Z,11.02
2023-04-02T16:56:08.167Z,11.02
2023-04-02T16:58:43.643Z,10.88
2023-04-02T17:01:18.904Z,10.74
2023-04-02T17:04:09.015Z,10.49
2023-04-02T17:06:40.525Z,10.23
2023-04-02T17:09:53.052Z,9.58
2023-04-02T17:12:20.844Z,9.29
2023-04-02T17:14:53.057Z,9.05
2023-04-02T17:17:21.317Z,9.03
2023-04-02T17:19:51.427Z,8.12
2023-04-02T17:22:21.507Z,8.44
2023-04-02T17:25:01.854Z,8.46
2023-04-02T17:27:36.185Z,8.28
2023-04-02T17:30:23.708Z,7.53
2023-04-02T17:32:50.401Z,7.71
2023-04-02T17:35:20.549Z,7.85
2023-04-02T17:37:56.797Z,7.47
2023-04-02T17:40:26.489Z,7.63
2023-04-02T17:43:14.087Z,7.53
2023-04-02T17:45:56.780Z,7.26
2023-04-02T17:48:48.363Z,7.13
2023-04-02T17:51:30.340Z,7.15
2023-04-02T17:54:19.531Z,7.04
2023-04-02T17:57:19.480Z,6.74
2023-04-02T18:00:04.526Z,6.85
2023-04-02T18:03:09.773Z,6.70
2023-04-02T18:05:44.585Z,6.61
2023-04-02T18:08:35.558Z,6.27
2023-04-02T18:11:13.560Z,6.44
2023-04-02T18:14:07.849Z,6.22
2023-04-02T18:16:34.428Z,6.25
2023-04-02T18:19:15.110Z,6.09
2023-04-02T18:22:18.208Z,6.07
2023-04-02T18:25:15.041Z,5.95
2023-04-02T18:28:10.845Z,5.96
2023-04-02T18:31:08.025Z,5.81
2023-04-02T18:33:58.615Z,5.81
2023-04-02T18:36:34.014Z,5.75
2023-04-02T18:39:09.954Z,5.26
2023-04-02T18:42:01.345Z,5.65
2023-04-02T18:44:57.215Z,5.57
2023-04-02T18:47:36.132Z,5.50
2023-04-02T18:50:19.026Z,5.43
2023-04-02T18:52:46.042Z,4.98
2023-04-02T18:55:17.924Z,5.13
2023-04-02T18:57:48.723Z,4.71
2023-04-02T19:00:23.656Z,4.99
2023-04-02T19:03:17.100Z,5.07
2023-04-02T19:05:49.461Z,5.03
2023-04-02T19:08:31.276Z,4.97
2023-04-02T19:11:06.800Z,4.71
2023-04-02T19:13:33.318Z,4.35
2023-04-02T19:16:22.396Z,4.84
2023-04-02T19:19:23.928Z,4.77
2023-04-02T19:22:16.836Z,4.74
2023-04-02T19:24:46.259Z,4.66
2023-04-02T19:27:33.863Z,4.62
2023-04-02T19:30:03.582Z,4.55
2023-04-02T19:32:43.437Z,4.46
2023-04-02T19:35:36.493Z,4.23
2023-04-02T19:38:22.677Z,4.28
2023-04-02T19:41:01.929Z,4.43
2023-04-02T19:43:29.546Z,4.26
2023-04-02T19:45:56.217Z,4.28
2023-04-02T19:48:26.793Z,4.14
2023-04-02T19:50:53.721Z,3.95
2023-04-02T19:53:20.425Z,4.22
2023-04-02T19:55:46.910Z,4.21
2023-04-02T19:58:29.456Z,4.14
2023-04-02T20:00:56.963Z,4.15
2023-04-02T20:03:23.701Z,4.10
2023-04-02T20:05:50.808Z,3.89
2023-04-02T20:08:17.432Z,3.88
2023-04-02T20:10:44.563Z,3.73
2023-04-02T20:13:11.488Z,3.93
2023-04-02T20:15:39.787Z,3.83
2023-04-02T20:18:06.918Z,3.89
2023-04-02T20:20:33.678Z,3.86
2023-04-02T20:23:00.591Z,3.86
2023-04-02T20:25:27.339Z,3.70
2023-04-02T20:27:53.955Z,3.81
2023-04-02T20:30:20.539Z,3.56
2023-04-02T20:32:47.154Z,3.72
2023-04-02T20:35:13.681Z,3.73
2023-04-02T20:37:41.833Z,3.73
2023-04-02T20:40:09.971Z,3.69
2023-04-02T20:42:36.599Z,3.38
2023-04-02T20:45:05.157Z,3.64
2023-04-02T20:47:31.912Z,3.55
2023-04-02T20:49:58.348Z,3.51
2023-04-02T20:52:25.019Z,3.52
2023-04-02T20:54:51.582Z,3.22
2023-04-02T20:57:24.151Z,3.41
2023-04-02T20:59:50.660Z,3.39
2023-04-02T21:02:17.104Z,3.21
2023-04-02T21:04:43.592Z,3.28
2023-04-02T21:07:10.013Z,3.23
2023-04-02T21:09:36.437Z,3.20
2023-04-02T21:12:02.908Z,3.14
2023-04-02T21:14:35.554Z,3.07
2023-04-02T21:17:01.938Z,3.00
2023-04-02T21:19:28.460Z,2.99
2023-04-02T21:21:55.079Z,2.67
2023-04-02T21:24:21.527Z,2.61
2023-04-02T21:26:48.133Z,2.82
2023-04-02T21:29:14.631Z,2.73
2023-04-02T21:31:41.596Z,2.69
2023-04-02T21:34:09.367Z,2.64
2023-04-02T21:36:39.889Z,2.57
2023-04-02T21:39:11.951Z,2.52
2023-04-02T21:41:40.987Z,2.44
2023-04-02T21:44:09.780Z,2.32
2023-04-02T21:46:39.773Z,2.30
2023-04-02T21:49:08.122Z,2.23
2023-04-02T21:51:36.641Z,2.15
2023-04-02T21:54:03.647Z,1.95
2023-04-02T21:56:32.317Z,1.97
2023-04-02T21:58:59.085Z,1.81
2023-04-02T22:01:27.984Z,1.85
2023-04-02T22:03:56.845Z,1.56
2023-04-02T22:06:25.803Z,1.71
2023-04-02T22:08:54.973Z,1.65
2023-04-02T22:11:24.799Z,1.60
2023-04-02T22:13:51.498Z,1.52
2023-04-02T22:16:24.292Z,1.19
2023-04-02T22:18:54.938Z,1.37
2023-04-02T22:21:22.124Z,1.18
2023-04-02T22:23:48.773Z,1.22
2023-04-02T22:26:17.390Z,0.99
2023-04-02T22:28:43.938Z,1.26
2023-04-02T22:31:25.823Z,1.31
2023-04-02T22:33:53.736Z,1.35
2023-04-02T22:36:22.447Z,1.29
2023-04-02T22:38:49.690Z,1.33
2023-04-02T22:41:28.187Z,1.37
2023-04-02T22:43:56.465Z,1.32
2023-04-02T22:46:23.277Z,1.17
2023-04-02T22:48:50.254Z,1.23
2023-04-02T22:51:19.810Z,0.84
2023-04-02T22:53:47.487Z,1.13
2023-04-02T22:56:17.376Z,1.06
2023-04-02T22:58:44.180Z,0.91
2023-04-02T23:01:27.519Z,0.97
2023-04-02T23:03:55.391Z,0.89
2023-04-02T23:06:22.883Z,0.85
2023-04-02T23:08:49.280Z,0.76
2023-04-02T23:11:18.917Z,0.77
2023-04-02T23:13:47.818Z,0.69
2023-04-02T23:16:16.097Z,0.66
2023-04-02T23:18:43.623Z,0.62
2023-04-02T23:21:10.364Z,0.38
2023-04-02T23:23:36.864Z,0.36
2023-04-02T23:26:05.454Z,0.47
2023-04-02T23:28:32.199Z,0.34
2023-04-02T23:30:58.888Z,0.39
2023-04-02T23:33:25.490Z,0.27
2023-04-02T23:35:52.057Z,0.29
2023-04-02T23:38:18.502Z,0.24
2023-04-02T23:40:44.921Z,0.21
2023-04-02T23:43:11.446Z,0.17
2023-04-02T23:45:37.996Z,0.14
2023-04-02T23:48:04.888Z,0.12
2023-04-02T23:50:31.458Z,-0.12
2023-04-02T23:52:57.899Z,0.04
2023-04-02T23:55:24.318Z,0.04
2023-04-02T23:57:51.386Z,0.02
